sensor_id;sensor_type;location;lat;lon;timestamp;temperature;humidity
16879;DHT22;8556;52.218;9.884;2024-02-15T00:00:43;9.80;99.90
16879;DHT22;8556;52.218;9.884;2024-02-15T00:03:49;10.60;99.90
16879;DHT22;8556;52.218;9.884;2024-02-15T00:09:38;11.10;99.90
16879;DHT22;8556;52.218;9.884;2024-02-15T00:12:11;10.00;99.90
16879;DHT22;8556;52.218;9.884;2024-02-15T00:15:08;10.10;99.90
16879;DHT22;8556;52.218;9.884;2024-02-15T00:17:55;10.10;99.90
16879;DHT22;8556;52.218;9.884;2024-02-15T00:20:41;10.10;99.90
16879;DHT22;8556;52.218;9.884;2024-02-15T00:23:37;9.90;99.90
16879;DHT22;8556;52.218;9.884;2024-02-15T00:26:14;10.10;99.90
16879;DHT22;8556;52.218;9.884;2024-02-15T00:29:42;10.20;99.90
16879;DHT22;8556;52.218;9.884;2024-02-15T00:35:07;10.20;99.90
16879;DHT22;8556;52.218;9.884;2024-02-15T00:41:09;10.30;99.90
16879;DHT22;8556;52.218;9.884;2024-02-15T00:44:07;10.40;99.90
16879;DHT22;8556;52.218;9.884;2024-02-15T00:50:04;10.40;99.90
16879;DHT22;8556;52.218;9.884;2024-02-15T00:52:32;10.40;99.90
16879;DHT22;8556;52.218;9.884;2024-02-15T00:54:58;11.00;99.90
16879;DHT22;8556;52.218;9.884;2024-02-15T00:57:25;10.50;99.90
16879;DHT22;8556;52.218;9.884;2024-02-15T00:59:53;10.50;99.90
16879;DHT22;8556;52.218;9.884;2024-02-15T01:02:20;10.50;99.90
16879;DHT22;8556;52.218;9.884;2024-02-15T01:04:49;10.50;99.90
16879;DHT22;8556;52.218;9.884;2024-02-15T01:07:16;10.50;99.90
16879;DHT22;8556;52.218;9.884;2024-02-15T01:09:42;10.50;99.90
16879;DHT22;8556;52.218;9.884;2024-02-15T01:12:10;10.50;99.90
16879;DHT22;8556;52.218;9.884;2024-02-15T01:14:37;10.50;99.90
16879;DHT22;8556;52.218;9.884;2024-02-15T01:17:05;10.60;99.90
16879;DHT22;8556;52.218;9.884;2024-02-15T01:19:33;10.50;99.90
16879;DHT22;8556;52.218;9.884;2024-02-15T01:22:00;10.50;99.90
16879;DHT22;8556;52.218;9.884;2024-02-15T01:24:28;10.60;99.90
16879;DHT22;8556;52.218;9.884;2024-02-15T01:26:55;10.50;99.90
16879;DHT22;8556;52.218;9.884;2024-02-15T01:29:22;10.50;99.90
16879;DHT22;8556;52.218;9.884;2024-02-15T01:31:51;10.70;99.90
16879;DHT22;8556;52.218;9.884;2024-02-15T01:34:19;10.50;99.90
16879;DHT22;8556;52.218;9.884;2024-02-15T01:36:47;10.40;99.90
16879;DHT22;8556;52.218;9.884;2024-02-15T01:39:14;10.50;99.90
16879;DHT22;8556;52.218;9.884;2024-02-15T01:41:46;10.40;99.90
16879;DHT22;8556;52.218;9.884;2024-02-15T01:44:13;10.40;99.90
16879;DHT22;8556;52.218;9.884;2024-02-15T01:46:40;10.40;99.90
16879;DHT22;8556;52.218;9.884;2024-02-15T01:49:07;10.40;99.90
16879;DHT22;8556;52.218;9.884;2024-02-15T01:51:36;10.40;99.90
16879;DHT22;8556;52.218;9.884;2024-02-15T01:54:06;10.40;99.90
16879;DHT22;8556;52.218;9.884;2024-02-15T01:56:35;10.40;99.90
16879;DHT22;8556;52.218;9.884;2024-02-15T01:59:02;10.40;99.90
16879;DHT22;8556;52.218;9.884;2024-02-15T02:01:30;10.40;99.90
16879;DHT22;8556;52.218;9.884;2024-02-15T02:03:58;10.40;99.90
16879;DHT22;8556;52.218;9.884;2024-02-15T02:06:25;10.50;99.90
16879;DHT22;8556;52.218;9.884;2024-02-15T02:08:54;10.40;99.90
16879;DHT22;8556;52.218;9.884;2024-02-15T02:11:21;10.40;99.90
16879;DHT22;8556;52.218;9.884;2024-02-15T02:13:47;10.40;99.90
16879;DHT22;8556;52.218;9.884;2024-02-15T02:16:27;10.40;99.90
16879;DHT22;8556;52.218;9.884;2024-02-15T02:18:55;10.30;99.90
16879;DHT22;8556;52.218;9.884;2024-02-15T02:21:22;10.60;99.90
16879;DHT22;8556;52.218;9.884;2024-02-15T02:23:55;10.40;99.90
16879;DHT22;8556;52.218;9.884;2024-02-15T02:26:24;10.50;99.90
16879;DHT22;8556;52.218;9.884;2024-02-15T02:28:51;10.50;99.90
16879;DHT22;8556;52.218;9.884;2024-02-15T02:31:19;10.60;99.90
16879;DHT22;8556;52.218;9.884;2024-02-15T02:33:50;10.60;99.90
16879;DHT22;8556;52.218;9.884;2024-02-15T02:36:18;10.70;99.90
16879;DHT22;8556;52.218;9.884;2024-02-15T02:38:45;10.60;99.90
16879;DHT22;8556;52.218;9.884;2024-02-15T02:41:15;10.70;99.90
16879;DHT22;8556;52.218;9.884;2024-02-15T02:43:43;10.70;99.90
16879;DHT22;8556;52.218;9.884;2024-02-15T02:46:10;10.70;99.90
16879;DHT22;8556;52.218;9.884;2024-02-15T02:48:37;10.80;99.90
16879;DHT22;8556;52.218;9.884;2024-02-15T02:51:04;10.80;99.90
16879;DHT22;8556;52.218;9.884;2024-02-15T02:53:31;10.80;99.90
16879;DHT22;8556;52.218;9.884;2024-02-15T02:55:58;10.80;99.90
16879;DHT22;8556;52.218;9.884;2024-02-15T02:58:25;10.80;99.90
16879;DHT22;8556;52.218;9.884;2024-02-15T03:00:53;10.80;99.90
16879;DHT22;8556;52.218;9.884;2024-02-15T03:03:20;11.10;99.90
16879;DHT22;8556;52.218;9.884;2024-02-15T03:05:48;10.80;99.90
16879;DHT22;8556;52.218;9.884;2024-02-15T03:08:15;10.80;99.90
16879;DHT22;8556;52.218;9.884;2024-02-15T03:10:43;10.80;99.90
16879;DHT22;8556;52.218;9.884;2024-02-15T03:13:10;10.70;99.90
16879;DHT22;8556;52.218;9.884;2024-02-15T03:15:37;10.80;99.90
16879;DHT22;8556;52.218;9.884;2024-02-15T03:18:05;10.80;99.90
16879;DHT22;8556;52.218;9.884;2024-02-15T03:20:36;10.80;99.90
16879;DHT22;8556;52.218;9.884;2024-02-15T03:23:03;10.80;99.90
16879;DHT22;8556;52.218;9.884;2024-02-15T03:25:30;10.80;99.90
16879;DHT22;8556;52.218;9.884;2024-02-15T03:27:58;10.80;99.90
16879;DHT22;8556;52.218;9.884;2024-02-15T03:30:31;10.80;99.90
16879;DHT22;8556;52.218;9.884;2024-02-15T03:32:59;10.80;99.90
16879;DHT22;8556;52.218;9.884;2024-02-15T03:35:28;10.80;99.90
16879;DHT22;8556;52.218;9.884;2024-02-15T03:37:57;10.90;99.90
16879;DHT22;8556;52.218;9.884;2024-02-15T03:40:24;10.80;99.90
16879;DHT22;8556;52.218;9.884;2024-02-15T03:42:52;10.90;99.90
16879;DHT22;8556;52.218;9.884;2024-02-15T03:45:19;10.80;99.90
16879;DHT22;8556;52.218;9.884;2024-02-15T03:47:46;10.80;99.90
16879;DHT22;8556;52.218;9.884;2024-02-15T03:50:13;10.80;99.90
16879;DHT22;8556;52.218;9.884;2024-02-15T03:52:42;10.80;99.90
16879;DHT22;8556;52.218;9.884;2024-02-15T03:55:09;10.80;99.90
16879;DHT22;8556;52.218;9.884;2024-02-15T03:57:38;10.90;99.90
16879;DHT22;8556;52.218;9.884;2024-02-15T04:00:07;10.90;99.90
16879;DHT22;8556;52.218;9.884;2024-02-15T04:02:36;10.90;99.90
16879;DHT22;8556;52.218;9.884;2024-02-15T04:05:06;10.90;99.90
16879;DHT22;8556;52.218;9.884;2024-02-15T04:07:34;10.90;99.90
16879;DHT22;8556;52.218;9.884;2024-02-15T04:10:05;11.00;99.90
16879;DHT22;8556;52.218;9.884;2024-02-15T04:12:32;11.00;99.90
16879;DHT22;8556;52.218;9.884;2024-02-15T04:14:59;11.00;99.90
16879;DHT22;8556;52.218;9.884;2024-02-15T04:17:31;11.00;99.90
16879;DHT22;8556;52.218;9.884;2024-02-15T04:19:58;11.00;99.90
16879;DHT22;8556;52.218;9.884;2024-02-15T04:22:25;11.00;99.90
16879;DHT22;8556;52.218;9.884;2024-02-15T04:24:52;11.00;99.90
16879;DHT22;8556;52.218;9.884;2024-02-15T04:27:21;11.00;99.90
16879;DHT22;8556;52.218;9.884;2024-02-15T04:29:49;11.40;99.90
16879;DHT22;8556;52.218;9.884;2024-02-15T04:32:16;11.20;99.90
16879;DHT22;8556;52.218;9.884;2024-02-15T04:34:44;11.10;99.90
16879;DHT22;8556;52.218;9.884;2024-02-15T04:37:12;11.10;99.90
16879;DHT22;8556;52.218;9.884;2024-02-15T04:39:40;11.10;99.90
16879;DHT22;8556;52.218;9.884;2024-02-15T04:42:06;11.10;99.90
16879;DHT22;8556;52.218;9.884;2024-02-15T04:44:38;11.10;99.90
16879;DHT22;8556;52.218;9.884;2024-02-15T04:47:05;11.20;99.90
16879;DHT22;8556;52.218;9.884;2024-02-15T04:49:32;11.10;99.90
16879;DHT22;8556;52.218;9.884;2024-02-15T04:51:59;11.10;99.90
16879;DHT22;8556;52.218;9.884;2024-02-15T04:54:27;11.20;99.90
16879;DHT22;8556;52.218;9.884;2024-02-15T04:56:55;11.10;99.90
16879;DHT22;8556;52.218;9.884;2024-02-15T04:59:22;11.10;99.90
16879;DHT22;8556;52.218;9.884;2024-02-15T05:01:52;11.20;99.90
16879;DHT22;8556;52.218;9.884;2024-02-15T05:04:19;11.10;99.90
16879;DHT22;8556;52.218;9.884;2024-02-15T05:06:46;11.10;99.90
16879;DHT22;8556;52.218;9.884;2024-02-15T05:09:13;11.00;99.90
16879;DHT22;8556;52.218;9.884;2024-02-15T05:11:40;11.00;99.90
16879;DHT22;8556;52.218;9.884;2024-02-15T05:14:11;11.10;99.90
16879;DHT22;8556;52.218;9.884;2024-02-15T05:16:38;11.10;99.90
16879;DHT22;8556;52.218;9.884;2024-02-15T05:19:09;11.10;99.90
16879;DHT22;8556;52.218;9.884;2024-02-15T05:21:37;11.10;99.90
16879;DHT22;8556;52.218;9.884;2024-02-15T05:24:05;11.00;99.90
16879;DHT22;8556;52.218;9.884;2024-02-15T05:26:32;11.10;99.90
16879;DHT22;8556;52.218;9.884;2024-02-15T05:28:59;11.00;99.90
16879;DHT22;8556;52.218;9.884;2024-02-15T05:31:25;11.00;99.90
16879;DHT22;8556;52.218;9.884;2024-02-15T05:33:53;11.00;99.90
16879;DHT22;8556;52.218;9.884;2024-02-15T05:36:22;11.20;99.90
16879;DHT22;8556;52.218;9.884;2024-02-15T05:38:52;11.10;99.90
16879;DHT22;8556;52.218;9.884;2024-02-15T05:41:19;11.10;99.90
16879;DHT22;8556;52.218;9.884;2024-02-15T05:43:46;11.10;99.90
16879;DHT22;8556;52.218;9.884;2024-02-15T05:46:14;11.10;99.90
16879;DHT22;8556;52.218;9.884;2024-02-15T05:48:41;11.10;99.90
16879;DHT22;8556;52.218;9.884;2024-02-15T05:51:08;11.10;99.90
16879;DHT22;8556;52.218;9.884;2024-02-15T05:53:36;11.10;99.90
16879;DHT22;8556;52.218;9.884;2024-02-15T05:56:04;11.10;99.90
16879;DHT22;8556;52.218;9.884;2024-02-15T05:58:32;11.10;99.90
16879;DHT22;8556;52.218;9.884;2024-02-15T06:00:59;11.10;99.90
16879;DHT22;8556;52.218;9.884;2024-02-15T06:03:27;11.20;99.90
16879;DHT22;8556;52.218;9.884;2024-02-15T06:05:54;11.00;99.90
16879;DHT22;8556;52.218;9.884;2024-02-15T06:08:24;11.00;99.90
16879;DHT22;8556;52.218;9.884;2024-02-15T06:10:52;10.90;99.90
16879;DHT22;8556;52.218;9.884;2024-02-15T06:13:20;11.20;99.90
16879;DHT22;8556;52.218;9.884;2024-02-15T06:15:47;11.30;99.90
16879;DHT22;8556;52.218;9.884;2024-02-15T06:18:18;11.30;99.90
16879;DHT22;8556;52.218;9.884;2024-02-15T06:20:47;11.00;99.90
16879;DHT22;8556;52.218;9.884;2024-02-15T06:23:15;11.00;99.90
16879;DHT22;8556;52.218;9.884;2024-02-15T06:25:42;11.10;99.90
16879;DHT22;8556;52.218;9.884;2024-02-15T06:28:10;11.10;99.90
16879;DHT22;8556;52.218;9.884;2024-02-15T06:31:00;11.00;99.90
16879;DHT22;8556;52.218;9.884;2024-02-15T06:33:45;11.10;99.90
16879;DHT22;8556;52.218;9.884;2024-02-15T06:36:29;11.10;99.90
16879;DHT22;8556;52.218;9.884;2024-02-15T06:39:13;11.10;99.90
16879;DHT22;8556;52.218;9.884;2024-02-15T06:41:57;11.10;99.90
16879;DHT22;8556;52.218;9.884;2024-02-15T06:44:25;11.20;99.90
16879;DHT22;8556;52.218;9.884;2024-02-15T06:46:52;11.20;99.90
16879;DHT22;8556;52.218;9.884;2024-02-15T06:49:20;11.30;99.90
16879;DHT22;8556;52.218;9.884;2024-02-15T06:51:48;11.30;99.90
16879;DHT22;8556;52.218;9.884;2024-02-15T06:54:14;11.30;99.90
16879;DHT22;8556;52.218;9.884;2024-02-15T06:56:42;11.40;99.90
16879;DHT22;8556;52.218;9.884;2024-02-15T06:59:11;11.30;99.90
16879;DHT22;8556;52.218;9.884;2024-02-15T07:01:41;11.30;99.90
16879;DHT22;8556;52.218;9.884;2024-02-15T07:04:07;11.30;99.90
16879;DHT22;8556;52.218;9.884;2024-02-15T07:06:36;11.20;99.90
16879;DHT22;8556;52.218;9.884;2024-02-15T07:09:03;11.20;99.90
16879;DHT22;8556;52.218;9.884;2024-02-15T07:11:31;11.20;99.90
16879;DHT22;8556;52.218;9.884;2024-02-15T07:13:58;11.20;99.90
16879;DHT22;8556;52.218;9.884;2024-02-15T07:16:25;11.20;99.90
16879;DHT22;8556;52.218;9.884;2024-02-15T07:18:53;11.20;99.90
16879;DHT22;8556;52.218;9.884;2024-02-15T07:21:20;11.20;99.90
16879;DHT22;8556;52.218;9.884;2024-02-15T07:23:51;11.20;99.90
16879;DHT22;8556;52.218;9.884;2024-02-15T07:26:20;11.20;99.90
16879;DHT22;8556;52.218;9.884;2024-02-15T07:28:50;11.20;99.90
16879;DHT22;8556;52.218;9.884;2024-02-15T07:31:18;11.20;99.90
16879;DHT22;8556;52.218;9.884;2024-02-15T07:33:49;11.20;99.90
16879;DHT22;8556;52.218;9.884;2024-02-15T07:36:22;11.20;99.90
16879;DHT22;8556;52.218;9.884;2024-02-15T07:38:49;11.20;99.90
16879;DHT22;8556;52.218;9.884;2024-02-15T07:41:17;11.20;99.90
16879;DHT22;8556;52.218;9.884;2024-02-15T07:43:45;11.20;99.90
16879;DHT22;8556;52.218;9.884;2024-02-15T07:46:16;11.40;99.90
16879;DHT22;8556;52.218;9.884;2024-02-15T07:48:43;11.30;99.90
16879;DHT22;8556;52.218;9.884;2024-02-15T07:51:12;11.40;99.90
16879;DHT22;8556;52.218;9.884;2024-02-15T07:53:42;11.50;99.90
16879;DHT22;8556;52.218;9.884;2024-02-15T07:56:09;11.50;99.90
16879;DHT22;8556;52.218;9.884;2024-02-15T07:58:38;11.60;99.90
16879;DHT22;8556;52.218;9.884;2024-02-15T08:01:09;11.70;99.90
16879;DHT22;8556;52.218;9.884;2024-02-15T08:03:36;11.70;99.90
16879;DHT22;8556;52.218;9.884;2024-02-15T08:06:08;11.70;99.90
16879;DHT22;8556;52.218;9.884;2024-02-15T08:08:35;11.90;99.90
16879;DHT22;8556;52.218;9.884;2024-02-15T08:11:04;12.00;99.90
16879;DHT22;8556;52.218;9.884;2024-02-15T08:13:31;12.10;99.90
16879;DHT22;8556;52.218;9.884;2024-02-15T08:15:57;12.30;99.90
16879;DHT22;8556;52.218;9.884;2024-02-15T08:18:24;12.40;99.90
16879;DHT22;8556;52.218;9.884;2024-02-15T08:20:51;12.30;99.90
16879;DHT22;8556;52.218;9.884;2024-02-15T08:23:19;12.30;99.90
16879;DHT22;8556;52.218;9.884;2024-02-15T08:25:46;12.30;99.90
16879;DHT22;8556;52.218;9.884;2024-02-15T08:28:14;12.30;99.90
16879;DHT22;8556;52.218;9.884;2024-02-15T08:30:41;12.30;99.90
16879;DHT22;8556;52.218;9.884;2024-02-15T08:33:08;12.40;99.90
16879;DHT22;8556;52.218;9.884;2024-02-15T08:35:36;12.40;99.90
16879;DHT22;8556;52.218;9.884;2024-02-15T08:38:05;12.50;99.90
16879;DHT22;8556;52.218;9.884;2024-02-15T08:40:32;12.70;99.90
16879;DHT22;8556;52.218;9.884;2024-02-15T08:43:00;12.80;99.90
16879;DHT22;8556;52.218;9.884;2024-02-15T08:45:29;12.90;99.90
16879;DHT22;8556;52.218;9.884;2024-02-15T08:47:56;12.90;99.90
16879;DHT22;8556;52.218;9.884;2024-02-15T08:50:23;13.00;99.90
16879;DHT22;8556;52.218;9.884;2024-02-15T08:52:50;13.00;99.90
16879;DHT22;8556;52.218;9.884;2024-02-15T08:55:17;13.00;99.90
16879;DHT22;8556;52.218;9.884;2024-02-15T08:57:46;13.10;99.90
16879;DHT22;8556;52.218;9.884;2024-02-15T09:00:13;13.10;99.90
16879;DHT22;8556;52.218;9.884;2024-02-15T09:02:43;13.10;99.90
16879;DHT22;8556;52.218;9.884;2024-02-15T09:05:09;13.20;99.90
16879;DHT22;8556;52.218;9.884;2024-02-15T09:07:39;13.30;99.90
16879;DHT22;8556;52.218;9.884;2024-02-15T09:10:08;13.20;99.90
16879;DHT22;8556;52.218;9.884;2024-02-15T09:12:36;13.20;99.90
16879;DHT22;8556;52.218;9.884;2024-02-15T09:15:06;13.20;99.90
16879;DHT22;8556;52.218;9.884;2024-02-15T09:17:33;13.20;99.90
16879;DHT22;8556;52.218;9.884;2024-02-15T09:20:07;13.20;99.90
16879;DHT22;8556;52.218;9.884;2024-02-15T09:22:34;13.20;99.90
16879;DHT22;8556;52.218;9.884;2024-02-15T09:25:02;13.30;99.90
16879;DHT22;8556;52.218;9.884;2024-02-15T09:35:10;13.30;99.90
16879;DHT22;8556;52.218;9.884;2024-02-15T09:37:38;13.40;99.90
16879;DHT22;8556;52.218;9.884;2024-02-15T09:40:08;13.30;99.90
16879;DHT22;8556;52.218;9.884;2024-02-15T09:42:36;13.40;99.90
16879;DHT22;8556;52.218;9.884;2024-02-15T09:45:04;13.40;99.90
16879;DHT22;8556;52.218;9.884;2024-02-15T09:47:37;13.50;99.90
16879;DHT22;8556;52.218;9.884;2024-02-15T09:50:06;13.40;99.90
16879;DHT22;8556;52.218;9.884;2024-02-15T09:52:35;13.40;99.90
16879;DHT22;8556;52.218;9.884;2024-02-15T09:55:03;13.40;99.90
16879;DHT22;8556;52.218;9.884;2024-02-15T09:57:30;13.40;29.80
16879;DHT22;8556;52.218;9.884;2024-02-15T09:59:58;13.40;1.00
16879;DHT22;8556;52.218;9.884;2024-02-15T10:02:26;13.40;1.00
16879;DHT22;8556;52.218;9.884;2024-02-15T10:04:54;13.40;1.00
16879;DHT22;8556;52.218;9.884;2024-02-15T10:07:22;13.50;1.00
16879;DHT22;8556;52.218;9.884;2024-02-15T10:09:51;13.40;99.90
16879;DHT22;8556;52.218;9.884;2024-02-15T10:12:18;13.40;1.00
16879;DHT22;8556;52.218;9.884;2024-02-15T10:14:48;13.40;1.00
16879;DHT22;8556;52.218;9.884;2024-02-15T10:17:18;13.40;99.90
16879;DHT22;8556;52.218;9.884;2024-02-15T10:19:48;13.50;1.00
16879;DHT22;8556;52.218;9.884;2024-02-15T10:22:28;13.30;1.00
16879;DHT22;8556;52.218;9.884;2024-02-15T10:25:10;13.30;1.00
16879;DHT22;8556;52.218;9.884;2024-02-15T10:27:38;13.30;1.00
16879;DHT22;8556;52.218;9.884;2024-02-15T10:30:14;13.30;99.90
16879;DHT22;8556;52.218;9.884;2024-02-15T10:32:43;13.30;99.90
16879;DHT22;8556;52.218;9.884;2024-02-15T10:35:10;13.30;1.00
16879;DHT22;8556;52.218;9.884;2024-02-15T10:37:41;13.30;1.00
16879;DHT22;8556;52.218;9.884;2024-02-15T10:40:11;13.30;1.00
16879;DHT22;8556;52.218;9.884;2024-02-15T10:42:40;13.40;1.00
16879;DHT22;8556;52.218;9.884;2024-02-15T10:45:08;13.40;1.00
16879;DHT22;8556;52.218;9.884;2024-02-15T10:47:37;13.40;1.00
16879;DHT22;8556;52.218;9.884;2024-02-15T10:50:06;13.30;1.00
16879;DHT22;8556;52.218;9.884;2024-02-15T10:52:36;13.30;1.00
16879;DHT22;8556;52.218;9.884;2024-02-15T10:55:10;13.20;1.00
16879;DHT22;8556;52.218;9.884;2024-02-15T10:57:44;13.10;99.90
16879;DHT22;8556;52.218;9.884;2024-02-15T11:00:14;13.10;99.90
16879;DHT22;8556;52.218;9.884;2024-02-15T11:02:54;13.00;99.90
16879;DHT22;8556;52.218;9.884;2024-02-15T11:05:32;13.00;99.90
16879;DHT22;8556;52.218;9.884;2024-02-15T11:08:02;13.00;99.90
16879;DHT22;8556;52.218;9.884;2024-02-15T11:10:31;13.00;99.90
16879;DHT22;8556;52.218;9.884;2024-02-15T11:12:59;13.10;99.90
16879;DHT22;8556;52.218;9.884;2024-02-15T11:15:43;13.10;99.90
16879;DHT22;8556;52.218;9.884;2024-02-15T11:18:42;13.20;99.90
16879;DHT22;8556;52.218;9.884;2024-02-15T11:21:10;13.30;99.90
16879;DHT22;8556;52.218;9.884;2024-02-15T11:23:36;13.30;99.90
16879;DHT22;8556;52.218;9.884;2024-02-15T11:26:08;13.40;99.90
16879;DHT22;8556;52.218;9.884;2024-02-15T11:28:44;13.30;99.90
16879;DHT22;8556;52.218;9.884;2024-02-15T11:34:42;13.30;99.90
16879;DHT22;8556;52.218;9.884;2024-02-15T11:37:51;13.40;99.90
16879;DHT22;8556;52.218;9.884;2024-02-15T11:40:19;13.30;99.90
16879;DHT22;8556;52.218;9.884;2024-02-15T11:42:49;13.40;99.90
16879;DHT22;8556;52.218;9.884;2024-02-15T11:45:18;13.40;99.90
16879;DHT22;8556;52.218;9.884;2024-02-15T11:47:48;13.50;99.90
16879;DHT22;8556;52.218;9.884;2024-02-15T11:50:16;13.50;99.90
16879;DHT22;8556;52.218;9.884;2024-02-15T11:52:44;13.50;99.90
16879;DHT22;8556;52.218;9.884;2024-02-15T11:55:11;13.60;99.90
16879;DHT22;8556;52.218;9.884;2024-02-15T11:57:39;13.60;99.90
16879;DHT22;8556;52.218;9.884;2024-02-15T12:00:24;13.60;99.90
16879;DHT22;8556;52.218;9.884;2024-02-15T12:03:09;13.70;99.90
16879;DHT22;8556;52.218;9.884;2024-02-15T12:05:54;13.80;99.90
16879;DHT22;8556;52.218;9.884;2024-02-15T12:08:38;13.80;29.00
16879;DHT22;8556;52.218;9.884;2024-02-15T12:11:22;13.80;1.00
16879;DHT22;8556;52.218;9.884;2024-02-15T12:14:11;13.70;99.90
16879;DHT22;8556;52.218;9.884;2024-02-15T12:17:01;13.70;1.00
16879;DHT22;8556;52.218;9.884;2024-02-15T12:19:47;13.70;99.90
16879;DHT22;8556;52.218;9.884;2024-02-15T12:22:15;13.70;99.90
16879;DHT22;8556;52.218;9.884;2024-02-15T12:24:42;13.70;99.90
16879;DHT22;8556;52.218;9.884;2024-02-15T12:27:09;13.60;99.90
16879;DHT22;8556;52.218;9.884;2024-02-15T12:29:37;13.60;99.90
16879;DHT22;8556;52.218;9.884;2024-02-15T12:32:05;13.60;99.90
16879;DHT22;8556;52.218;9.884;2024-02-15T12:34:32;13.60;99.90
16879;DHT22;8556;52.218;9.884;2024-02-15T12:37:05;13.60;99.90
16879;DHT22;8556;52.218;9.884;2024-02-15T12:39:34;13.60;99.90
16879;DHT22;8556;52.218;9.884;2024-02-15T12:42:02;13.70;99.90
16879;DHT22;8556;52.218;9.884;2024-02-15T12:44:32;13.60;99.90
16879;DHT22;8556;52.218;9.884;2024-02-15T12:47:00;13.70;99.90
16879;DHT22;8556;52.218;9.884;2024-02-15T12:49:30;13.60;99.90
16879;DHT22;8556;52.218;9.884;2024-02-15T12:52:35;13.60;99.90
16879;DHT22;8556;52.218;9.884;2024-02-15T12:55:13;13.60;99.90
16879;DHT22;8556;52.218;9.884;2024-02-15T12:57:42;13.60;99.90
16879;DHT22;8556;52.218;9.884;2024-02-15T13:00:11;13.60;99.90
16879;DHT22;8556;52.218;9.884;2024-02-15T13:02:43;13.60;99.90
16879;DHT22;8556;52.218;9.884;2024-02-15T13:05:12;13.60;99.90
16879;DHT22;8556;52.218;9.884;2024-02-15T13:07:39;13.50;99.90
16879;DHT22;8556;52.218;9.884;2024-02-15T13:10:07;13.50;99.90
16879;DHT22;8556;52.218;9.884;2024-02-15T13:12:37;13.50;99.90
16879;DHT22;8556;52.218;9.884;2024-02-15T13:15:07;13.70;99.90
16879;DHT22;8556;52.218;9.884;2024-02-15T13:17:38;13.60;99.90
16879;DHT22;8556;52.218;9.884;2024-02-15T13:20:06;13.60;99.90
16879;DHT22;8556;52.218;9.884;2024-02-15T13:22:38;13.70;99.90
16879;DHT22;8556;52.218;9.884;2024-02-15T13:25:06;13.70;99.90
16879;DHT22;8556;52.218;9.884;2024-02-15T13:27:34;13.70;99.90
16879;DHT22;8556;52.218;9.884;2024-02-15T13:30:02;13.80;99.90
16879;DHT22;8556;52.218;9.884;2024-02-15T13:32:36;13.80;99.90
16879;DHT22;8556;52.218;9.884;2024-02-15T13:35:11;13.80;99.90
16879;DHT22;8556;52.218;9.884;2024-02-15T13:37:48;13.80;99.90
16879;DHT22;8556;52.218;9.884;2024-02-15T13:40:15;14.00;99.90
16879;DHT22;8556;52.218;9.884;2024-02-15T13:42:46;14.20;99.90
16879;DHT22;8556;52.218;9.884;2024-02-15T13:45:15;14.20;1.00
16879;DHT22;8556;52.218;9.884;2024-02-15T13:47:44;14.20;1.00
16879;DHT22;8556;52.218;9.884;2024-02-15T13:50:12;14.10;1.00
16879;DHT22;8556;52.218;9.884;2024-02-15T13:52:41;14.20;1.00
16879;DHT22;8556;52.218;9.884;2024-02-15T13:55:11;14.20;99.90
16879;DHT22;8556;52.218;9.884;2024-02-15T13:57:38;14.20;99.90
16879;DHT22;8556;52.218;9.884;2024-02-15T14:00:07;14.30;72.50
16879;DHT22;8556;52.218;9.884;2024-02-15T14:02:39;14.30;99.90
16879;DHT22;8556;52.218;9.884;2024-02-15T14:05:06;14.30;1.00
16879;DHT22;8556;52.218;9.884;2024-02-15T14:07:34;14.20;1.00
16879;DHT22;8556;52.218;9.884;2024-02-15T14:10:01;14.20;1.00
16879;DHT22;8556;52.218;9.884;2024-02-15T14:12:29;14.20;1.00
16879;DHT22;8556;52.218;9.884;2024-02-15T14:14:56;14.20;1.00
16879;DHT22;8556;52.218;9.884;2024-02-15T14:17:23;14.10;99.90
16879;DHT22;8556;52.218;9.884;2024-02-15T14:19:50;14.10;99.90
16879;DHT22;8556;52.218;9.884;2024-02-15T14:22:17;14.00;99.90
16879;DHT22;8556;52.218;9.884;2024-02-15T14:24:44;14.00;99.90
16879;DHT22;8556;52.218;9.884;2024-02-15T14:27:10;14.00;99.90
16879;DHT22;8556;52.218;9.884;2024-02-15T14:29:41;14.00;99.90
16879;DHT22;8556;52.218;9.884;2024-02-15T14:32:31;14.00;1.00
16879;DHT22;8556;52.218;9.884;2024-02-15T14:35:15;14.00;1.00
16879;DHT22;8556;52.218;9.884;2024-02-15T14:37:42;13.90;1.00
16879;DHT22;8556;52.218;9.884;2024-02-15T14:40:10;13.90;1.00
16879;DHT22;8556;52.218;9.884;2024-02-15T14:42:39;13.90;11.50
16879;DHT22;8556;52.218;9.884;2024-02-15T14:45:09;13.90;89.00
16879;DHT22;8556;52.218;9.884;2024-02-15T14:47:36;13.80;92.70
16879;DHT22;8556;52.218;9.884;2024-02-15T14:50:03;13.80;1.00
16879;DHT22;8556;52.218;9.884;2024-02-15T14:52:34;13.70;1.00
16879;DHT22;8556;52.218;9.884;2024-02-15T14:55:01;13.70;99.80
16879;DHT22;8556;52.218;9.884;2024-02-15T14:57:30;13.70;59.60
16879;DHT22;8556;52.218;9.884;2024-02-15T14:59:57;13.70;1.00
16879;DHT22;8556;52.218;9.884;2024-02-15T15:02:25;13.70;1.00
16879;DHT22;8556;52.218;9.884;2024-02-15T15:04:52;13.70;1.00
16879;DHT22;8556;52.218;9.884;2024-02-15T15:07:44;13.60;1.00
16879;DHT22;8556;52.218;9.884;2024-02-15T15:10:29;13.60;99.90
16879;DHT22;8556;52.218;9.884;2024-02-15T15:13:13;13.60;99.90
16879;DHT22;8556;52.218;9.884;2024-02-15T15:15:40;13.60;1.00
16879;DHT22;8556;52.218;9.884;2024-02-15T15:18:08;13.70;1.00
16879;DHT22;8556;52.218;9.884;2024-02-15T15:20:36;13.70;99.90
16879;DHT22;8556;52.218;9.884;2024-02-15T15:23:04;13.70;99.90
16879;DHT22;8556;52.218;9.884;2024-02-15T15:25:32;13.60;1.00
16879;DHT22;8556;52.218;9.884;2024-02-15T15:27:59;13.70;1.00
16879;DHT22;8556;52.218;9.884;2024-02-15T15:30:26;13.60;1.00
16879;DHT22;8556;52.218;9.884;2024-02-15T15:32:53;13.60;1.00
16879;DHT22;8556;52.218;9.884;2024-02-15T15:35:21;13.70;1.00
16879;DHT22;8556;52.218;9.884;2024-02-15T15:37:52;13.60;1.00
16879;DHT22;8556;52.218;9.884;2024-02-15T15:40:19;13.60;1.00
16879;DHT22;8556;52.218;9.884;2024-02-15T15:42:46;13.60;1.00
16879;DHT22;8556;52.218;9.884;2024-02-15T15:45:14;13.50;1.00
16879;DHT22;8556;52.218;9.884;2024-02-15T15:51:45;13.50;1.00
16879;DHT22;8556;52.218;9.884;2024-02-15T16:01:27;13.40;1.00
16879;DHT22;8556;52.218;9.884;2024-02-15T16:04:35;13.40;1.00
16879;DHT22;8556;52.218;9.884;2024-02-15T16:07:26;13.40;99.90
16879;DHT22;8556;52.218;9.884;2024-02-15T16:14:37;13.40;1.00
16879;DHT22;8556;52.218;9.884;2024-02-15T16:24:57;13.30;99.90
16879;DHT22;8556;52.218;9.884;2024-02-15T16:27:37;13.40;99.90
16879;DHT22;8556;52.218;9.884;2024-02-15T16:49:32;13.00;1.00
16879;DHT22;8556;52.218;9.884;2024-02-15T16:56:03;13.00;99.90
16879;DHT22;8556;52.218;9.884;2024-02-15T17:30:08;13.20;1.00
16879;DHT22;8556;52.218;9.884;2024-02-15T17:36:14;13.20;1.00
16879;DHT22;8556;52.218;9.884;2024-02-15T17:38:42;13.00;1.00
16879;DHT22;8556;52.218;9.884;2024-02-15T18:03:26;12.90;99.90
16879;DHT22;8556;52.218;9.884;2024-02-15T18:10:34;12.90;99.90
16879;DHT22;8556;52.218;9.884;2024-02-15T18:13:42;12.80;99.90
16879;DHT22;8556;52.218;9.884;2024-02-15T18:16:35;12.70;1.00
16879;DHT22;8556;52.218;9.884;2024-02-15T18:30:07;12.50;1.00
16879;DHT22;8556;52.218;9.884;2024-02-15T18:33:57;12.60;99.90
16879;DHT22;8556;52.218;9.884;2024-02-15T18:37:06;12.40;1.00